sensor_id;sensor_type;location;lat;lon;timestamp;P1;durP1;ratioP1;P2;durP2;ratioP2
5690;SDS011;2870;42.680;23.364;2023-03-16T00:00:06;3.10;;;2.80;;
5690;SDS011;2870;42.680;23.364;2023-03-16T00:02:38;3.30;;;2.80;;
5690;SDS011;2870;42.680;23.364;2023-03-16T00:05:05;3.00;;;2.70;;
5690;SDS011;2870;42.680;23.364;2023-03-16T00:07:33;4.00;;;2.77;;
5690;SDS011;2870;42.680;23.364;2023-03-16T00:10:00;3.20;;;2.67;;
5690;SDS011;2870;42.680;23.364;2023-03-16T00:12:29;3.53;;;3.23;;
5690;SDS011;2870;42.680;23.364;2023-03-16T00:14:59;2.80;;;2.50;;
5690;SDS011;2870;42.680;23.364;2023-03-16T00:17:26;3.20;;;2.90;;
5690;SDS011;2870;42.680;23.364;2023-03-16T00:19:54;3.20;;;2.90;;
5690;SDS011;2870;42.680;23.364;2023-03-16T00:22:22;3.30;;;3.00;;
5690;SDS011;2870;42.680;23.364;2023-03-16T00:24:51;3.30;;;3.00;;
5690;SDS011;2870;42.680;23.364;2023-03-16T00:27:19;3.67;;;3.37;;
5690;SDS011;2870;42.680;23.364;2023-03-16T00:29:49;3.57;;;3.10;;
5690;SDS011;2870;42.680;23.364;2023-03-16T00:32:20;3.07;;;2.77;;
5690;SDS011;2870;42.680;23.364;2023-03-16T00:34:48;3.33;;;3.03;;
5690;SDS011;2870;42.680;23.364;2023-03-16T00:37:15;3.50;;;3.20;;
5690;SDS011;2870;42.680;23.364;2023-03-16T00:39:44;3.67;;;3.37;;
5690;SDS011;2870;42.680;23.364;2023-03-16T00:42:12;3.23;;;2.83;;
5690;SDS011;2870;42.680;23.364;2023-03-16T00:44:40;3.60;;;3.30;;
5690;SDS011;2870;42.680;23.364;2023-03-16T00:47:09;3.67;;;3.37;;
5690;SDS011;2870;42.680;23.364;2023-03-16T00:49:38;4.07;;;3.40;;
5690;SDS011;2870;42.680;23.364;2023-03-16T00:52:07;3.60;;;3.20;;
5690;SDS011;2870;42.680;23.364;2023-03-16T00:54:38;3.23;;;2.93;;
5690;SDS011;2870;42.680;23.364;2023-03-16T00:57:07;3.30;;;3.00;;
5690;SDS011;2870;42.680;23.364;2023-03-16T00:59:34;3.60;;;3.30;;
5690;SDS011;2870;42.680;23.364;2023-03-16T01:02:02;3.90;;;3.50;;
5690;SDS011;2870;42.680;23.364;2023-03-16T01:04:31;3.80;;;3.40;;
5690;SDS011;2870;42.680;23.364;2023-03-16T01:07:00;3.17;;;2.87;;
5690;SDS011;2870;42.680;23.364;2023-03-16T01:09:27;3.50;;;3.20;;
5690;SDS011;2870;42.680;23.364;2023-03-16T01:11:53;3.57;;;3.03;;
5690;SDS011;2870;42.680;23.364;2023-03-16T01:14:20;3.10;;;2.80;;
5690;SDS011;2870;42.680;23.364;2023-03-16T01:16:48;3.40;;;3.10;;
5690;SDS011;2870;42.680;23.364;2023-03-16T01:19:15;3.30;;;3.00;;
5690;SDS011;2870;42.680;23.364;2023-03-16T01:21:45;3.30;;;3.00;;
5690;SDS011;2870;42.680;23.364;2023-03-16T01:24:11;2.73;;;2.53;;
5690;SDS011;2870;42.680;23.364;2023-03-16T01:26:38;3.03;;;2.73;;
5690;SDS011;2870;42.680;23.364;2023-03-16T01:29:05;3.25;;;2.95;;
5690;SDS011;2870;42.680;23.364;2023-03-16T01:31:32;3.97;;;3.67;;
5690;SDS011;2870;42.680;23.364;2023-03-16T01:33:58;3.05;;;2.75;;
5690;SDS011;2870;42.680;23.364;2023-03-16T01:36:28;3.10;;;2.80;;
5690;SDS011;2870;42.680;23.364;2023-03-16T01:38:56;3.15;;;2.85;;
5690;SDS011;2870;42.680;23.364;2023-03-16T01:41:24;2.93;;;2.50;;
5690;SDS011;2870;42.680;23.364;2023-03-16T01:43:51;3.50;;;3.20;;
5690;SDS011;2870;42.680;23.364;2023-03-16T01:46:23;3.20;;;2.90;;
5690;SDS011;2870;42.680;23.364;2023-03-16T01:48:59;3.03;;;2.83;;
5690;SDS011;2870;42.680;23.364;2023-03-16T01:51:32;3.00;;;2.80;;
5690;SDS011;2870;42.680;23.364;2023-03-16T01:54:05;3.30;;;2.80;;
5690;SDS011;2870;42.680;23.364;2023-03-16T01:56:35;2.67;;;2.43;;
5690;SDS011;2870;42.680;23.364;2023-03-16T01:59:06;3.22;;;2.92;;
5690;SDS011;2870;42.680;23.364;2023-03-16T02:01:37;3.00;;;2.80;;
5690;SDS011;2870;42.680;23.364;2023-03-16T02:04:06;3.43;;;2.40;;
5690;SDS011;2870;42.680;23.364;2023-03-16T02:06:42;3.37;;;3.07;;
5690;SDS011;2870;42.680;23.364;2023-03-16T02:09:12;3.22;;;2.92;;
5690;SDS011;2870;42.680;23.364;2023-03-16T02:11:39;3.07;;;2.87;;
5690;SDS011;2870;42.680;23.364;2023-03-16T02:14:08;3.50;;;3.20;;
5690;SDS011;2870;42.680;23.364;2023-03-16T02:16:36;7.43;;;2.57;;
5690;SDS011;2870;42.680;23.364;2023-03-16T02:19:04;3.42;;;3.13;;
5690;SDS011;2870;42.680;23.364;2023-03-16T02:21:39;2.90;;;2.70;;
5690;SDS011;2870;42.680;23.364;2023-03-16T02:24:14;2.90;;;2.70;;
5690;SDS011;2870;42.680;23.364;2023-03-16T02:26:42;3.27;;;2.60;;
5690;SDS011;2870;42.680;23.364;2023-03-16T02:29:16;3.17;;;2.88;;
5690;SDS011;2870;42.680;23.364;2023-03-16T02:31:55;3.30;;;3.00;;
5690;SDS011;2870;42.680;23.364;2023-03-16T02:34:24;2.83;;;2.53;;
5690;SDS011;2870;42.680;23.364;2023-03-16T02:36:51;3.13;;;2.83;;
5690;SDS011;2870;42.680;23.364;2023-03-16T02:39:19;2.80;;;2.60;;
5690;SDS011;2870;42.680;23.364;2023-03-16T02:41:46;2.90;;;2.70;;
5690;SDS011;2870;42.680;23.364;2023-03-16T02:44:14;3.13;;;2.83;;
5690;SDS011;2870;42.680;23.364;2023-03-16T02:46:44;2.80;;;2.60;;
5690;SDS011;2870;42.680;23.364;2023-03-16T02:49:16;3.30;;;3.00;;
5690;SDS011;2870;42.680;23.364;2023-03-16T02:51:46;3.55;;;3.00;;
5690;SDS011;2870;42.680;23.364;2023-03-16T02:54:13;3.10;;;2.80;;
5690;SDS011;2870;42.680;23.364;2023-03-16T02:56:40;3.15;;;2.85;;
5690;SDS011;2870;42.680;23.364;2023-03-16T02:59:07;3.30;;;3.00;;
5690;SDS011;2870;42.680;23.364;2023-03-16T03:01:36;3.20;;;2.90;;
5690;SDS011;2870;42.680;23.364;2023-03-16T03:04:03;3.13;;;2.83;;
5690;SDS011;2870;42.680;23.364;2023-03-16T03:06:32;3.30;;;3.00;;
5690;SDS011;2870;42.680;23.364;2023-03-16T03:08:59;3.58;;;3.28;;
5690;SDS011;2870;42.680;23.364;2023-03-16T03:11:26;3.00;;;2.70;;
5690;SDS011;2870;42.680;23.364;2023-03-16T03:13:54;3.38;;;3.08;;
5690;SDS011;2870;42.680;23.364;2023-03-16T03:16:21;3.30;;;3.00;;
5690;SDS011;2870;42.680;23.364;2023-03-16T03:18:48;3.25;;;2.97;;
5690;SDS011;2870;42.680;23.364;2023-03-16T03:21:16;4.18;;;3.10;;
5690;SDS011;2870;42.680;23.364;2023-03-16T03:23:46;3.20;;;2.90;;
5690;SDS011;2870;42.680;23.364;2023-03-16T03:26:13;3.50;;;3.20;;
5690;SDS011;2870;42.680;23.364;2023-03-16T03:28:40;3.08;;;2.83;;
5690;SDS011;2870;42.680;23.364;2023-03-16T03:31:06;3.38;;;3.08;;
5690;SDS011;2870;42.680;23.364;2023-03-16T03:33:38;3.50;;;3.05;;
5690;SDS011;2870;42.680;23.364;2023-03-16T03:36:05;3.72;;;2.88;;
5690;SDS011;2870;42.680;23.364;2023-03-16T03:38:32;3.10;;;2.70;;
5690;SDS011;2870;42.680;23.364;2023-03-16T03:41:00;3.40;;;3.10;;
5690;SDS011;2870;42.680;23.364;2023-03-16T03:43:28;3.30;;;3.00;;
5690;SDS011;2870;42.680;23.364;2023-03-16T03:45:55;2.90;;;2.70;;
5690;SDS011;2870;42.680;23.364;2023-03-16T03:48:22;2.88;;;2.65;;
5690;SDS011;2870;42.680;23.364;2023-03-16T03:50:50;2.90;;;2.55;;
5690;SDS011;2870;42.680;23.364;2023-03-16T03:53:18;2.90;;;2.70;;
5690;SDS011;2870;42.680;23.364;2023-03-16T03:55:45;2.97;;;2.67;;
5690;SDS011;2870;42.680;23.364;2023-03-16T03:58:15;2.88;;;2.67;;
5690;SDS011;2870;42.680;23.364;2023-03-16T04:00:42;3.00;;;2.80;;
5690;SDS011;2870;42.680;23.364;2023-03-16T04:03:08;3.20;;;2.90;;
5690;SDS011;2870;42.680;23.364;2023-03-16T04:05:35;2.72;;;2.53;;
5690;SDS011;2870;42.680;23.364;2023-03-16T04:08:02;3.25;;;3.05;;
5690;SDS011;2870;42.680;23.364;2023-03-16T04:10:29;3.65;;;3.35;;
5690;SDS011;2870;42.680;23.364;2023-03-16T04:12:57;11.65;;;2.83;;
5690;SDS011;2870;42.680;23.364;2023-03-16T04:15:26;3.60;;;3.30;;
5690;SDS011;2870;42.680;23.364;2023-03-16T04:17:53;3.20;;;2.90;;
5690;SDS011;2870;42.680;23.364;2023-03-16T04:20:20;2.92;;;2.72;;
5690;SDS011;2870;42.680;23.364;2023-03-16T04:22:48;3.28;;;2.97;;
5690;SDS011;2870;42.680;23.364;2023-03-16T04:25:22;2.90;;;2.70;;
5690;SDS011;2870;42.680;23.364;2023-03-16T04:27:50;2.92;;;2.58;;
5690;SDS011;2870;42.680;23.364;2023-03-16T04:30:17;3.30;;;3.00;;
5690;SDS011;2870;42.680;23.364;2023-03-16T04:32:46;3.33;;;2.90;;
5690;SDS011;2870;42.680;23.364;2023-03-16T04:35:12;5.10;;;3.20;;
5690;SDS011;2870;42.680;23.364;2023-03-16T04:37:41;2.78;;;2.58;;
5690;SDS011;2870;42.680;23.364;2023-03-16T04:40:08;3.30;;;3.00;;
5690;SDS011;2870;42.680;23.364;2023-03-16T04:42:41;3.13;;;2.83;;
5690;SDS011;2870;42.680;23.364;2023-03-16T04:45:08;3.78;;;3.35;;
5690;SDS011;2870;42.680;23.364;2023-03-16T04:47:36;3.55;;;3.20;;
5690;SDS011;2870;42.680;23.364;2023-03-16T04:50:05;3.25;;;2.95;;
5690;SDS011;2870;42.680;23.364;2023-03-16T04:52:32;3.40;;;3.10;;
5690;SDS011;2870;42.680;23.364;2023-03-16T04:54:59;3.30;;;3.00;;
5690;SDS011;2870;42.680;23.364;2023-03-16T04:57:26;3.53;;;3.22;;
5690;SDS011;2870;42.680;23.364;2023-03-16T04:59:52;3.30;;;3.00;;
5690;SDS011;2870;42.680;23.364;2023-03-16T05:02:19;3.42;;;3.13;;
5690;SDS011;2870;42.680;23.364;2023-03-16T05:04:47;3.70;;;3.40;;
5690;SDS011;2870;42.680;23.364;2023-03-16T05:07:15;3.22;;;2.92;;
5690;SDS011;2870;42.680;23.364;2023-03-16T05:09:42;3.50;;;3.20;;
5690;SDS011;2870;42.680;23.364;2023-03-16T05:12:09;3.10;;;2.80;;
5690;SDS011;2870;42.680;23.364;2023-03-16T05:14:36;3.30;;;3.00;;
5690;SDS011;2870;42.680;23.364;2023-03-16T05:17:03;2.85;;;2.65;;
5690;SDS011;2870;42.680;23.364;2023-03-16T05:19:30;3.15;;;2.85;;
5690;SDS011;2870;42.680;23.364;2023-03-16T05:21:56;2.92;;;2.63;;
5690;SDS011;2870;42.680;23.364;2023-03-16T05:24:25;3.40;;;3.10;;
5690;SDS011;2870;42.680;23.364;2023-03-16T05:26:51;3.00;;;2.80;;
5690;SDS011;2870;42.680;23.364;2023-03-16T05:29:18;3.50;;;2.95;;
5690;SDS011;2870;42.680;23.364;2023-03-16T05:31:45;3.60;;;3.30;;
5690;SDS011;2870;42.680;23.364;2023-03-16T05:34:12;3.10;;;2.85;;
5690;SDS011;2870;42.680;23.364;2023-03-16T05:36:39;3.17;;;2.88;;
5690;SDS011;2870;42.680;23.364;2023-03-16T05:39:06;3.95;;;3.55;;
5690;SDS011;2870;42.680;23.364;2023-03-16T05:41:35;3.38;;;3.08;;
5690;SDS011;2870;42.680;23.364;2023-03-16T05:44:02;3.05;;;2.75;;
5690;SDS011;2870;42.680;23.364;2023-03-16T05:46:29;3.30;;;3.00;;
5690;SDS011;2870;42.680;23.364;2023-03-16T05:48:56;3.13;;;2.83;;
5690;SDS011;2870;42.680;23.364;2023-03-16T05:51:23;21.25;;;3.33;;
5690;SDS011;2870;42.680;23.364;2023-03-16T05:53:51;3.53;;;3.22;;
5690;SDS011;2870;42.680;23.364;2023-03-16T05:56:21;3.17;;;2.85;;
5690;SDS011;2870;42.680;23.364;2023-03-16T05:58:50;3.80;;;3.10;;
5690;SDS011;2870;42.680;23.364;2023-03-16T06:01:19;3.00;;;2.80;;
5690;SDS011;2870;42.680;23.364;2023-03-16T06:03:46;3.95;;;3.10;;
5690;SDS011;2870;42.680;23.364;2023-03-16T06:06:13;3.75;;;3.20;;
5690;SDS011;2870;42.680;23.364;2023-03-16T06:08:41;3.72;;;3.15;;
5690;SDS011;2870;42.680;23.364;2023-03-16T06:11:07;4.07;;;3.53;;
5690;SDS011;2870;42.680;23.364;2023-03-16T06:13:35;3.92;;;3.63;;
5690;SDS011;2870;42.680;23.364;2023-03-16T06:16:04;4.20;;;3.80;;
5690;SDS011;2870;42.680;23.364;2023-03-16T06:18:31;4.13;;;3.72;;
5690;SDS011;2870;42.680;23.364;2023-03-16T06:20:59;4.35;;;3.85;;
5690;SDS011;2870;42.680;23.364;2023-03-16T06:23:26;3.80;;;3.45;;
5690;SDS011;2870;42.680;23.364;2023-03-16T06:25:52;4.07;;;3.67;;
5690;SDS011;2870;42.680;23.364;2023-03-16T06:28:20;3.70;;;3.40;;
5690;SDS011;2870;42.680;23.364;2023-03-16T06:30:47;4.35;;;3.72;;
5690;SDS011;2870;42.680;23.364;2023-03-16T06:33:16;3.70;;;3.40;;
5690;SDS011;2870;42.680;23.364;2023-03-16T06:35:43;5.60;;;3.90;;
5690;SDS011;2870;42.680;23.364;2023-03-16T06:38:12;4.60;;;3.75;;
5690;SDS011;2870;42.680;23.364;2023-03-16T06:40:39;4.72;;;3.22;;
5690;SDS011;2870;42.680;23.364;2023-03-16T06:43:06;3.53;;;3.22;;
5690;SDS011;2870;42.680;23.364;2023-03-16T06:45:33;4.53;;;3.88;;
5690;SDS011;2870;42.680;23.364;2023-03-16T06:48:00;4.28;;;3.50;;
5690;SDS011;2870;42.680;23.364;2023-03-16T06:50:28;5.20;;;3.80;;
5690;SDS011;2870;42.680;23.364;2023-03-16T06:52:55;4.22;;;3.35;;
5690;SDS011;2870;42.680;23.364;2023-03-16T06:55:22;4.22;;;3.80;;
5690;SDS011;2870;42.680;23.364;2023-03-16T06:57:48;5.82;;;3.60;;
5690;SDS011;2870;42.680;23.364;2023-03-16T07:00:16;4.50;;;3.80;;
5690;SDS011;2870;42.680;23.364;2023-03-16T07:02:43;3.53;;;3.20;;
5690;SDS011;2870;42.680;23.364;2023-03-16T07:05:10;4.75;;;3.90;;
5690;SDS011;2870;42.680;23.364;2023-03-16T07:07:39;3.63;;;3.05;;
5690;SDS011;2870;42.680;23.364;2023-03-16T07:10:08;5.07;;;3.70;;
5690;SDS011;2870;42.680;23.364;2023-03-16T07:12:36;4.45;;;3.60;;
5690;SDS011;2870;42.680;23.364;2023-03-16T07:15:03;4.93;;;4.03;;
5690;SDS011;2870;42.680;23.364;2023-03-16T07:17:31;5.18;;;3.78;;
5690;SDS011;2870;42.680;23.364;2023-03-16T07:19:58;4.15;;;3.65;;
5690;SDS011;2870;42.680;23.364;2023-03-16T07:22:29;5.80;;;4.20;;
5690;SDS011;2870;42.680;23.364;2023-03-16T07:24:57;4.03;;;3.40;;
5690;SDS011;2870;42.680;23.364;2023-03-16T07:27:24;4.88;;;4.03;;
5690;SDS011;2870;42.680;23.364;2023-03-16T07:29:51;4.63;;;4.20;;
5690;SDS011;2870;42.680;23.364;2023-03-16T07:32:17;4.68;;;4.05;;
5690;SDS011;2870;42.680;23.364;2023-03-16T07:34:44;4.28;;;3.88;;
5690;SDS011;2870;42.680;23.364;2023-03-16T07:37:11;4.70;;;3.95;;
5690;SDS011;2870;42.680;23.364;2023-03-16T07:39:38;4.97;;;4.07;;
5690;SDS011;2870;42.680;23.364;2023-03-16T07:42:07;6.30;;;4.45;;
5690;SDS011;2870;42.680;23.364;2023-03-16T07:44:34;5.35;;;4.10;;
5690;SDS011;2870;42.680;23.364;2023-03-16T07:47:01;9.55;;;5.00;;
5690;SDS011;2870;42.680;23.364;2023-03-16T07:49:28;6.53;;;4.60;;
5690;SDS011;2870;42.680;23.364;2023-03-16T07:51:55;4.45;;;3.83;;
5690;SDS011;2870;42.680;23.364;2023-03-16T07:54:22;3.58;;;3.28;;
5690;SDS011;2870;42.680;23.364;2023-03-16T07:56:49;5.47;;;4.15;;
5690;SDS011;2870;42.680;23.364;2023-03-16T07:59:17;4.25;;;3.85;;
5690;SDS011;2870;42.680;23.364;2023-03-16T08:01:45;13.48;;;7.55;;
5690;SDS011;2870;42.680;23.364;2023-03-16T08:04:13;5.50;;;4.88;;
5690;SDS011;2870;42.680;23.364;2023-03-16T08:06:39;10.02;;;4.10;;
5690;SDS011;2870;42.680;23.364;2023-03-16T08:09:07;6.85;;;5.40;;
5690;SDS011;2870;42.680;23.364;2023-03-16T08:11:34;4.45;;;4.00;;
5690;SDS011;2870;42.680;23.364;2023-03-16T08:14:00;4.05;;;3.67;;
5690;SDS011;2870;42.680;23.364;2023-03-16T08:16:29;7.55;;;5.30;;
5690;SDS011;2870;42.680;23.364;2023-03-16T08:18:57;3.65;;;2.90;;
5690;SDS011;2870;42.680;23.364;2023-03-16T08:21:25;4.83;;;4.30;;
5690;SDS011;2870;42.680;23.364;2023-03-16T08:23:52;4.33;;;3.87;;
5690;SDS011;2870;42.680;23.364;2023-03-16T08:26:21;4.90;;;4.40;;
5690;SDS011;2870;42.680;23.364;2023-03-16T08:28:51;7.17;;;4.70;;
5690;SDS011;2870;42.680;23.364;2023-03-16T08:31:18;5.57;;;4.60;;
5690;SDS011;2870;42.680;23.364;2023-03-16T08:33:47;4.75;;;3.92;;
5690;SDS011;2870;42.680;23.364;2023-03-16T08:36:15;6.20;;;3.90;;
5690;SDS011;2870;42.680;23.364;2023-03-16T08:38:45;4.50;;;3.63;;
5690;SDS011;2870;42.680;23.364;2023-03-16T08:41:12;27.85;;;14.48;;
5690;SDS011;2870;42.680;23.364;2023-03-16T08:43:40;9.30;;;5.95;;
5690;SDS011;2870;42.680;23.364;2023-03-16T08:46:08;4.40;;;3.77;;
5690;SDS011;2870;42.680;23.364;2023-03-16T08:48:37;5.47;;;3.93;;
5690;SDS011;2870;42.680;23.364;2023-03-16T08:51:06;3.87;;;3.43;;
5690;SDS011;2870;42.680;23.364;2023-03-16T08:53:33;7.23;;;3.83;;
5690;SDS011;2870;42.680;23.364;2023-03-16T08:56:01;5.03;;;4.10;;
5690;SDS011;2870;42.680;23.364;2023-03-16T08:58:29;3.37;;;3.07;;
5690;SDS011;2870;42.680;23.364;2023-03-16T09:00:56;5.00;;;4.40;;
5690;SDS011;2870;42.680;23.364;2023-03-16T09:03:24;4.03;;;3.63;;
5690;SDS011;2870;42.680;23.364;2023-03-16T09:05:51;4.97;;;3.97;;
5690;SDS011;2870;42.680;23.364;2023-03-16T09:08:19;8.00;;;4.13;;
5690;SDS011;2870;42.680;23.364;2023-03-16T09:10:47;7.20;;;4.87;;
5690;SDS011;2870;42.680;23.364;2023-03-16T09:13:15;4.97;;;3.50;;
5690;SDS011;2870;42.680;23.364;2023-03-16T09:15:43;8.10;;;3.17;;
5690;SDS011;2870;42.680;23.364;2023-03-16T09:18:10;4.30;;;3.27;;
5690;SDS011;2870;42.680;23.364;2023-03-16T09:20:37;5.30;;;3.67;;
5690;SDS011;2870;42.680;23.364;2023-03-16T09:23:04;5.67;;;4.20;;
5690;SDS011;2870;42.680;23.364;2023-03-16T09:25:33;4.93;;;3.93;;
5690;SDS011;2870;42.680;23.364;2023-03-16T09:27:59;3.93;;;3.37;;
5690;SDS011;2870;42.680;23.364;2023-03-16T09:30:26;5.40;;;4.20;;
5690;SDS011;2870;42.680;23.364;2023-03-16T09:32:53;4.13;;;2.87;;
5690;SDS011;2870;42.680;23.364;2023-03-16T09:35:20;6.60;;;4.17;;
5690;SDS011;2870;42.680;23.364;2023-03-16T09:37:47;8.30;;;3.47;;
5690;SDS011;2870;42.680;23.364;2023-03-16T09:40:20;8.10;;;5.17;;
5690;SDS011;2870;42.680;23.364;2023-03-16T09:42:54;9.37;;;4.77;;
5690;SDS011;2870;42.680;23.364;2023-03-16T09:45:34;3.57;;;2.73;;
5690;SDS011;2870;42.680;23.364;2023-03-16T09:48:07;5.70;;;3.47;;
5690;SDS011;2870;42.680;23.364;2023-03-16T09:50:37;5.80;;;4.33;;
5690;SDS011;2870;42.680;23.364;2023-03-16T09:53:09;5.70;;;3.90;;
5690;SDS011;2870;42.680;23.364;2023-03-16T09:55:43;6.07;;;4.10;;
5690;SDS011;2870;42.680;23.364;2023-03-16T09:58:17;5.87;;;4.10;;
5690;SDS011;2870;42.680;23.364;2023-03-16T10:00:47;6.13;;;5.07;;
5690;SDS011;2870;42.680;23.364;2023-03-16T10:03:27;6.50;;;5.07;;
5690;SDS011;2870;42.680;23.364;2023-03-16T10:06:02;4.33;;;3.90;;
5690;SDS011;2870;42.680;23.364;2023-03-16T10:08:36;4.97;;;4.40;;
5690;SDS011;2870;42.680;23.364;2023-03-16T10:11:09;6.33;;;4.67;;
5690;SDS011;2870;42.680;23.364;2023-03-16T10:13:50;5.50;;;4.37;;
5690;SDS011;2870;42.680;23.364;2023-03-16T10:16:21;5.77;;;4.40;;
5690;SDS011;2870;42.680;23.364;2023-03-16T10:18:56;8.30;;;4.90;;
5690;SDS011;2870;42.680;23.364;2023-03-16T10:21:26;5.63;;;4.30;;
5690;SDS011;2870;42.680;23.364;2023-03-16T10:23:56;5.90;;;4.40;;
5690;SDS011;2870;42.680;23.364;2023-03-16T10:26:30;5.63;;;4.33;;
5690;SDS011;2870;42.680;23.364;2023-03-16T10:29:05;5.93;;;4.57;;
5690;SDS011;2870;42.680;23.364;2023-03-16T10:31:37;6.03;;;4.47;;
5690;SDS011;2870;42.680;23.364;2023-03-16T10:34:07;5.63;;;4.40;;
5690;SDS011;2870;42.680;23.364;2023-03-16T10:36:35;5.23;;;4.13;;
5690;SDS011;2870;42.680;23.364;2023-03-16T10:39:05;7.20;;;4.47;;
5690;SDS011;2870;42.680;23.364;2023-03-16T10:41:36;5.60;;;4.60;;
5690;SDS011;2870;42.680;23.364;2023-03-16T10:44:09;5.30;;;3.87;;
5690;SDS011;2870;42.680;23.364;2023-03-16T10:46:37;8.23;;;4.83;;
5690;SDS011;2870;42.680;23.364;2023-03-16T10:49:05;9.23;;;5.07;;
5690;SDS011;2870;42.680;23.364;2023-03-16T10:51:45;5.33;;;3.90;;
5690;SDS011;2870;42.680;23.364;2023-03-16T10:54:14;7.40;;;4.77;;
5690;SDS011;2870;42.680;23.364;2023-03-16T10:56:49;9.07;;;5.77;;
5690;SDS011;2870;42.680;23.364;2023-03-16T10:59:24;6.17;;;4.70;;
5690;SDS011;2870;42.680;23.364;2023-03-16T11:01:56;8.30;;;5.50;;
5690;SDS011;2870;42.680;23.364;2023-03-16T11:04:23;6.93;;;5.03;;
5690;SDS011;2870;42.680;23.364;2023-03-16T11:06:51;7.00;;;4.67;;
5690;SDS011;2870;42.680;23.364;2023-03-16T11:09:22;7.40;;;4.40;;
5690;SDS011;2870;42.680;23.364;2023-03-16T11:11:52;5.10;;;4.00;;
5690;SDS011;2870;42.680;23.364;2023-03-16T11:14:20;6.10;;;4.67;;
5690;SDS011;2870;42.680;23.364;2023-03-16T11:16:52;6.70;;;5.57;;
5690;SDS011;2870;42.680;23.364;2023-03-16T11:19:27;11.90;;;5.13;;
5690;SDS011;2870;42.680;23.364;2023-03-16T11:21:58;8.93;;;5.17;;
5690;SDS011;2870;42.680;23.364;2023-03-16T11:24:32;7.40;;;5.70;;
5690;SDS011;2870;42.680;23.364;2023-03-16T11:27:10;6.57;;;4.53;;
5690;SDS011;2870;42.680;23.364;2023-03-16T11:29:55;6.53;;;5.27;;
5690;SDS011;2870;42.680;23.364;2023-03-16T11:32:31;5.90;;;5.30;;
5690;SDS011;2870;42.680;23.364;2023-03-16T11:35:01;9.37;;;5.87;;
5690;SDS011;2870;42.680;23.364;2023-03-16T11:37:40;7.30;;;5.47;;
5690;SDS011;2870;42.680;23.364;2023-03-16T11:40:28;5.77;;;5.13;;
5690;SDS011;2870;42.680;23.364;2023-03-16T11:43:08;10.23;;;6.20;;
5690;SDS011;2870;42.680;23.364;2023-03-16T11:45:46;7.87;;;5.33;;
5690;SDS011;2870;42.680;23.364;2023-03-16T11:48:32;13.03;;;6.00;;
5690;SDS011;2870;42.680;23.364;2023-03-16T11:51:08;7.20;;;5.50;;
5690;SDS011;2870;42.680;23.364;2023-03-16T11:53:47;6.53;;;4.80;;
5690;SDS011;2870;42.680;23.364;2023-03-16T11:56:26;8.50;;;5.50;;
5690;SDS011;2870;42.680;23.364;2023-03-16T11:59:00;6.60;;;5.07;;
5690;SDS011;2870;42.680;23.364;2023-03-16T12:01:43;5.90;;;4.70;;
5690;SDS011;2870;42.680;23.364;2023-03-16T12:04:30;13.90;;;5.83;;
5690;SDS011;2870;42.680;23.364;2023-03-16T12:10:08;11.10;;;6.17;;
5690;SDS011;2870;42.680;23.364;2023-03-16T12:12:45;6.40;;;5.47;;
5690;SDS011;2870;42.680;23.364;2023-03-16T12:15:25;8.33;;;6.30;;
5690;SDS011;2870;42.680;23.364;2023-03-16T12:18:01;5.70;;;4.80;;
5690;SDS011;2870;42.680;23.364;2023-03-16T12:20:35;14.73;;;7.60;;
5690;SDS011;2870;42.680;23.364;2023-03-16T12:23:09;9.03;;;6.80;;
5690;SDS011;2870;42.680;23.364;2023-03-16T12:25:41;9.37;;;7.00;;
5690;SDS011;2870;42.680;23.364;2023-03-16T12:28:13;13.83;;;9.10;;
5690;SDS011;2870;42.680;23.364;2023-03-16T12:30:49;10.43;;;6.00;;
5690;SDS011;2870;42.680;23.364;2023-03-16T12:33:26;7.77;;;5.90;;
5690;SDS011;2870;42.680;23.364;2023-03-16T12:36:10;5.90;;;5.30;;
5690;SDS011;2870;42.680;23.364;2023-03-16T12:38:59;7.63;;;5.37;;
5690;SDS011;2870;42.680;23.364;2023-03-16T12:41:32;7.00;;;5.73;;
5690;SDS011;2870;42.680;23.364;2023-03-16T12:44:09;8.60;;;5.20;;
5690;SDS011;2870;42.680;23.364;2023-03-16T12:46:44;5.87;;;5.27;;
5690;SDS011;2870;42.680;23.364;2023-03-16T12:49:20;8.53;;;5.73;;
5690;SDS011;2870;42.680;23.364;2023-03-16T12:51:58;7.07;;;5.40;;
5690;SDS011;2870;42.680;23.364;2023-03-16T12:54:26;6.53;;;5.30;;
5690;SDS011;2870;42.680;23.364;2023-03-16T12:56:58;5.20;;;4.33;;
5690;SDS011;2870;42.680;23.364;2023-03-16T12:59:34;8.37;;;6.40;;
5690;SDS011;2870;42.680;23.364;2023-03-16T13:02:04;8.07;;;6.00;;
5690;SDS011;2870;42.680;23.364;2023-03-16T13:04:41;8.63;;;5.63;;
5690;SDS011;2870;42.680;23.364;2023-03-16T13:07:15;7.60;;;5.93;;
5690;SDS011;2870;42.680;23.364;2023-03-16T13:09:45;6.50;;;5.80;;
5690;SDS011;2870;42.680;23.364;2023-03-16T13:12:21;7.40;;;6.10;;
5690;SDS011;2870;42.680;23.364;2023-03-16T13:14:50;8.07;;;6.70;;
5690;SDS011;2870;42.680;23.364;2023-03-16T13:17:22;7.47;;;5.80;;
5690;SDS011;2870;42.680;23.364;2023-03-16T13:19:58;9.00;;;6.53;;
5690;SDS011;2870;42.680;23.364;2023-03-16T13:22:43;8.90;;;6.50;;
5690;SDS011;2870;42.680;23.364;2023-03-16T13:25:14;9.37;;;6.77;;
5690;SDS011;2870;42.680;23.364;2023-03-16T13:27:47;15.40;;;7.00;;
5690;SDS011;2870;42.680;23.364;2023-03-16T13:30:16;8.10;;;6.47;;
5690;SDS011;2870;42.680;23.364;2023-03-16T13:32:46;9.57;;;6.90;;
5690;SDS011;2870;42.680;23.364;2023-03-16T13:35:14;10.20;;;7.30;;
5690;SDS011;2870;42.680;23.364;2023-03-16T13:37:44;12.80;;;7.67;;
5690;SDS011;2870;42.680;23.364;2023-03-16T13:40:16;8.57;;;7.10;;
5690;SDS011;2870;42.680;23.364;2023-03-16T13:42:45;10.47;;;7.47;;
5690;SDS011;2870;42.680;23.364;2023-03-16T13:45:18;18.70;;;8.30;;
5690;SDS011;2870;42.680;23.364;2023-03-16T13:47:47;9.17;;;7.63;;
5690;SDS011;2870;42.680;23.364;2023-03-16T13:50:15;8.33;;;6.87;;
5690;SDS011;2870;42.680;23.364;2023-03-16T13:52:50;10.80;;;7.50;;
5690;SDS011;2870;42.680;23.364;2023-03-16T13:55:24;15.50;;;8.10;;
5690;SDS011;2870;42.680;23.364;2023-03-16T13:57:55;9.60;;;6.63;;
5690;SDS011;2870;42.680;23.364;2023-03-16T14:00:23;12.20;;;8.43;;
5690;SDS011;2870;42.680;23.364;2023-03-16T14:02:52;17.67;;;7.70;;
5690;SDS011;2870;42.680;23.364;2023-03-16T14:05:21;10.20;;;7.90;;
5690;SDS011;2870;42.680;23.364;2023-03-16T14:07:53;13.07;;;8.00;;
5690;SDS011;2870;42.680;23.364;2023-03-16T14:10:21;8.67;;;7.47;;
5690;SDS011;2870;42.680;23.364;2023-03-16T14:12:50;12.60;;;8.37;;
5690;SDS011;2870;42.680;23.364;2023-03-16T14:15:17;14.03;;;8.73;;
5690;SDS011;2870;42.680;23.364;2023-03-16T14:17:46;15.53;;;8.33;;
5690;SDS011;2870;42.680;23.364;2023-03-16T14:20:16;13.30;;;7.97;;
5690;SDS011;2870;42.680;23.364;2023-03-16T14:22:45;11.00;;;9.53;;
5690;SDS011;2870;42.680;23.364;2023-03-16T14:25:16;11.93;;;8.43;;
5690;SDS011;2870;42.680;23.364;2023-03-16T14:27:46;14.37;;;8.80;;
5690;SDS011;2870;42.680;23.364;2023-03-16T14:30:14;11.83;;;8.67;;
5690;SDS011;2870;42.680;23.364;2023-03-16T14:32:53;12.80;;;9.70;;
5690;SDS011;2870;42.680;23.364;2023-03-16T14:35:24;9.40;;;7.93;;
5690;SDS011;2870;42.680;23.364;2023-03-16T14:37:51;11.67;;;8.97;;
5690;SDS011;2870;42.680;23.364;2023-03-16T14:40:23;12.43;;;8.97;;
5690;SDS011;2870;42.680;23.364;2023-03-16T14:42:53;13.97;;;8.90;;
5690;SDS011;2870;42.680;23.364;2023-03-16T14:45:23;15.47;;;11.50;;
5690;SDS011;2870;42.680;23.364;2023-03-16T14:48:00;12.47;;;8.77;;
5690;SDS011;2870;42.680;23.364;2023-03-16T14:50:30;11.77;;;9.17;;
5690;SDS011;2870;42.680;23.364;2023-03-16T14:52:58;10.23;;;8.43;;
5690;SDS011;2870;42.680;23.364;2023-03-16T14:55:27;20.23;;;11.50;;
5690;SDS011;2870;42.680;23.364;2023-03-16T14:57:54;13.23;;;9.80;;
5690;SDS011;2870;42.680;23.364;2023-03-16T15:00:21;11.80;;;9.57;;
5690;SDS011;2870;42.680;23.364;2023-03-16T15:02:53;12.37;;;9.60;;
5690;SDS011;2870;42.680;23.364;2023-03-16T15:05:26;11.53;;;8.70;;
5690;SDS011;2870;42.680;23.364;2023-03-16T15:07:57;12.27;;;8.63;;
5690;SDS011;2870;42.680;23.364;2023-03-16T15:10:24;15.93;;;9.83;;
5690;SDS011;2870;42.680;23.364;2023-03-16T15:12:54;10.83;;;9.10;;
5690;SDS011;2870;42.680;23.364;2023-03-16T15:15:28;14.80;;;9.87;;
5690;SDS011;2870;42.680;23.364;2023-03-16T15:17:56;10.70;;;8.40;;